Aeroporto :
LOGIN :

Iscrizione | Disclaimer

   EN    FR    IT 

 










Sommario :    VFR   VFR Marginale   IFR   IFR Intensivo   IFR Molto Intensivo
Visibilità : 
Base nubi : 
>= 8 km
>= 3000ft
5 / 8 km
1000 / 3000 ft
1500m / 5 km
500 / 1000 ft
800 / 1500m
200 / 500 ft
< 800m
< 200 ft
Simboli :   Temporali  Nebbia  Neve Forte  Precipitazioni Forti  Vento > 20 kt
SIGMETs :   Varie  Temporali  Ghiacco  Turbolenza  Onda orograficha  Ceneri Vulcaniche






- Altitudine del aeroporto : 354 ft
- Codice IATA : OER


ESNO - Örnsköldsvik

ULTIMO METAR :
  • 061720Z 26009KT CAVOK M00/M02 Q0983

METARs OBSOLETI :
  • 061650Z 25009KT CAVOK M01/M02 Q0983
  • 061620Z 26007KT CAVOK M01/M03 Q0982
  • 061550Z 26007KT CAVOK M01/M02 Q0982
  • 061520Z 25005KT CAVOK M02/M03 Q0982
  • 061450Z 30007KT CAVOK M02/M03 Q0982

TAF TAF ESNO
Valido dal 06 a 15 ore il 06 a 19 ore UTC


061430Z 0615/0619 27004KT CAVOK



MetMap, La meteo Aeronautica in un colpo d'occhio ! - Copyright ORBIFLY Dicembre 2007 - Disclaimer

ORBIFLY MET'MAP TEAM :

Programmazione e sviluppo : Alexandra Zaïnal
Concezione : Baudouin d'Aumeries
Aiuto per la programmazione : Marc-Olivier Méhu
Supporto tecnico e logistico : Manuel Goepfert
Aiuto per la traduzione : Arnaldo La Scala

Contatto : metmap@orbifly.com




FONTI E CREDITI :

   NOAA